createdAt,value
2022-09-17T00:00:33.557Z,53.10
2022-09-17T00:03:05.906Z,53.20
2022-09-17T00:05:38.707Z,53.30
2022-09-17T00:08:15.178Z,53.30
2022-09-17T00:10:47.745Z,53.50
2022-09-17T00:13:20.058Z,53.50
2022-09-17T00:15:52.704Z,53.60
2022-09-17T00:18:25.088Z,53.60
2022-09-17T00:20:57.551Z,53.60
2022-09-17T00:23:30.342Z,53.70
2022-09-17T00:26:06.578Z,54.50
2022-09-17T00:28:39.552Z,53.70
2022-09-17T00:31:12.171Z,53.60
2022-09-17T00:33:44.767Z,53.50
2022-09-17T00:36:17.214Z,53.50
2022-09-17T00:38:56.256Z,53.50
2022-09-17T00:41:31.500Z,53.50
2022-09-17T00:44:39.390Z,53.40
2022-09-17T00:47:23.005Z,53.40
2022-09-17T00:50:03.201Z,53.30
2022-09-17T00:52:44.247Z,53.30
2022-09-17T00:55:24.781Z,53.40
2022-09-17T00:58:00.093Z,53.50
2022-09-17T01:00:32.889Z,53.30
2022-09-17T01:03:05.708Z,53.30
2022-09-17T01:05:53.982Z,53.20
2022-09-17T01:08:44.239Z,53.20
2022-09-17T01:11:41.262Z,53.10
2022-09-17T01:14:19.600Z,53.10
2022-09-17T01:17:11.618Z,53.00
2022-09-17T01:20:11.132Z,53.00
2022-09-17T01:23:19.149Z,53.10
2022-09-17T01:25:54.715Z,53.20
2022-09-17T01:28:42.993Z,53.10
2022-09-17T01:31:39.814Z,53.20
2022-09-17T01:34:32.076Z,53.20
2022-09-17T01:37:10.116Z,53.20
2022-09-17T01:40:15.744Z,53.30
2022-09-17T01:43:09.867Z,53.30
2022-09-17T01:45:45.278Z,53.30
2022-09-17T01:48:33.404Z,53.30
2022-09-17T01:51:09.258Z,53.30
2022-09-17T01:53:48.074Z,53.20
2022-09-17T01:56:27.275Z,53.10
2022-09-17T01:59:11.674Z,53.10
2022-09-17T02:01:48.693Z,53.20
2022-09-17T02:04:27.430Z,53.20
2022-09-17T02:07:14.752Z,53.20
2022-09-17T02:10:14.564Z,53.30
2022-09-17T02:12:53.482Z,53.30
2022-09-17T02:15:34.368Z,53.40
2022-09-17T02:18:09.644Z,53.30
2022-09-17T02:20:48.678Z,53.30
2022-09-17T02:23:30.552Z,53.10
2022-09-17T02:26:17.475Z,53.10
2022-09-17T02:28:57.150Z,52.90
2022-09-17T02:31:30.063Z,52.80
2022-09-17T02:34:04.773Z,52.70
2022-09-17T02:36:37.683Z,52.50
2022-09-17T02:39:10.141Z,52.30
2022-09-17T02:42:17.561Z,52.10
2022-09-17T02:44:55.873Z,52.00
2022-09-17T02:47:43.894Z,51.80
2022-09-17T02:50:22.252Z,51.70
2022-09-17T02:53:10.097Z,51.60
2022-09-17T02:56:04.758Z,51.50
2022-09-17T02:59:09.659Z,51.50
2022-09-17T03:02:19.147Z,51.60
2022-09-17T03:04:53.328Z,51.50
2022-09-17T03:07:26.825Z,51.50
2022-09-17T03:09:59.895Z,51.40
2022-09-17T03:12:32.725Z,51.50
2022-09-17T03:15:06.008Z,51.50
2022-09-17T03:17:38.549Z,51.40
2022-09-17T03:20:10.912Z,51.30
2022-09-17T03:22:43.591Z,51.40
2022-09-17T03:25:16.182Z,51.20
2022-09-17T03:27:49.992Z,51.20
2022-09-17T03:30:22.527Z,51.10
2022-09-17T03:32:54.855Z,51.00
2022-09-17T03:35:27.510Z,51.10
2022-09-17T03:37:59.951Z,51.00
2022-09-17T03:40:32.410Z,51.10
2022-09-17T03:43:06.275Z,51.00
2022-09-17T03:45:38.836Z,50.90
2022-09-17T03:48:12.367Z,50.90
2022-09-17T03:50:44.831Z,50.90
2022-09-17T03:53:17.379Z,50.70
2022-09-17T03:55:50.182Z,50.80
2022-09-17T03:58:24.091Z,50.70
2022-09-17T04:00:58.146Z,50.50
2022-09-17T04:03:31.349Z,50.70
2022-09-17T04:06:03.824Z,50.40
2022-09-17T04:08:36.908Z,50.20
2022-09-17T04:11:09.479Z,50.40
2022-09-17T04:13:41.967Z,50.40
2022-09-17T04:16:14.560Z,50.10
2022-09-17T04:18:47.382Z,50.30
2022-09-17T04:21:20.164Z,50.10
2022-09-17T04:23:52.670Z,49.80
2022-09-17T04:26:25.106Z,49.60
2022-09-17T04:28:57.788Z,49.90
2022-09-17T04:31:32.362Z,49.70
2022-09-17T04:34:04.826Z,49.40
2022-09-17T04:36:37.248Z,49.50
2022-09-17T04:39:13.297Z,49.20
2022-09-17T04:41:46.079Z,49.00
2022-09-17T04:44:21.647Z,48.90
2022-09-17T04:46:54.507Z,48.80
2022-09-17T04:49:30.041Z,48.50
2022-09-17T04:52:02.712Z,48.30
2022-09-17T04:54:35.259Z,48.10
2022-09-17T04:57:07.606Z,47.80
2022-09-17T04:59:40.033Z,48.20
2022-09-17T05:02:13.321Z,47.70
2022-09-17T05:04:47.150Z,47.40
2022-09-17T05:07:19.807Z,47.00
2022-09-17T05:09:54.534Z,46.80
2022-09-17T05:12:29.230Z,47.20
2022-09-17T05:15:04.636Z,46.40
2022-09-17T05:17:37.282Z,46.10
2022-09-17T05:20:10.538Z,46.10
2022-09-17T05:22:48.092Z,45.90
2022-09-17T05:25:25.568Z,45.70
2022-09-17T05:27:58.039Z,45.60
2022-09-17T05:30:30.588Z,45.50
2022-09-17T05:33:05.879Z,45.90
2022-09-17T05:35:38.361Z,45.50
2022-09-17T05:38:10.827Z,45.50
2022-09-17T05:40:43.213Z,45.40
2022-09-17T05:43:16.366Z,45.40
2022-09-17T05:45:48.893Z,45.40
2022-09-17T05:48:21.168Z,45.40
2022-09-17T05:50:58.150Z,45.70
2022-09-17T05:53:30.596Z,45.60
2022-09-17T05:56:02.942Z,45.70
2022-09-17T05:58:36.100Z,45.90
2022-09-17T06:01:08.725Z,45.80
2022-09-17T06:03:41.201Z,45.90
2022-09-17T06:06:13.686Z,45.90
2022-09-17T06:08:46.191Z,46.10
2022-09-17T06:11:18.789Z,46.10
2022-09-17T06:13:55.099Z,46.20
2022-09-17T06:16:28.032Z,46.30
2022-09-17T06:19:00.962Z,46.40
2022-09-17T06:21:36.262Z,46.30
2022-09-17T06:24:10.795Z,46.30
2022-09-17T06:26:43.480Z,46.30
2022-09-17T06:29:15.798Z,46.20
2022-09-17T06:31:49.641Z,46.40
2022-09-17T06:34:22.192Z,46.20
2022-09-17T06:36:54.580Z,46.30
2022-09-17T06:39:27.094Z,46.40
2022-09-17T06:41:59.628Z,46.20
2022-09-17T06:44:34.054Z,47.10
2022-09-17T06:47:08.145Z,46.30
2022-09-17T06:49:40.656Z,46.30
2022-09-17T06:52:13.032Z,46.20
2022-09-17T06:54:45.565Z,46.40
2022-09-17T06:57:18.135Z,46.40
2022-09-17T06:59:55.012Z,46.50
2022-09-17T07:02:29.831Z,46.40
2022-09-17T07:05:02.895Z,46.40
2022-09-17T07:07:36.101Z,46.50
2022-09-17T07:10:08.999Z,46.40
2022-09-17T07:12:44.499Z,46.30
2022-09-17T07:15:19.740Z,46.30
2022-09-17T07:17:52.209Z,46.30
2022-09-17T07:20:24.533Z,46.30
2022-09-17T07:22:59.676Z,46.40
2022-09-17T07:25:35.162Z,46.40
2022-09-17T07:28:08.023Z,46.30
2022-09-17T07:30:42.935Z,46.30
2022-09-17T07:33:17.854Z,46.50
2022-09-17T07:36:01.202Z,46.40
2022-09-17T07:38:35.132Z,46.40
2022-09-17T07:41:15.809Z,46.30
2022-09-17T07:43:54.516Z,46.30
2022-09-17T07:46:30.350Z,46.30
2022-09-17T07:49:07.901Z,46.30
2022-09-17T07:51:40.734Z,46.40
2022-09-17T07:54:13.303Z,46.30
2022-09-17T07:56:47.999Z,46.20
2022-09-17T07:59:21.612Z,46.20
2022-09-17T08:01:54.253Z,45.90
2022-09-17T08:04:31.940Z,45.60
2022-09-17T08:07:04.428Z,45.10
2022-09-17T08:09:36.928Z,44.70
2022-09-17T08:12:09.433Z,44.30
2022-09-17T08:14:42.571Z,44.00
2022-09-17T08:17:15.266Z,44.50
2022-09-17T08:19:49.426Z,43.00
2022-09-17T08:22:22.338Z,42.60
2022-09-17T08:24:54.785Z,42.30
2022-09-17T08:27:27.303Z,42.00
2022-09-17T08:30:00.272Z,41.90
2022-09-17T08:32:32.837Z,41.40
2022-09-17T08:35:06.647Z,41.50
2022-09-17T08:37:39.976Z,41.00
2022-09-17T08:40:21.415Z,40.90
2022-09-17T08:43:02.657Z,40.60
2022-09-17T08:45:35.935Z,40.40
2022-09-17T08:48:13.609Z,40.10
2022-09-17T08:50:46.641Z,39.80
2022-09-17T08:53:31.103Z,39.60
2022-09-17T08:56:12.474Z,39.40
2022-09-17T08:59:00.982Z,39.10
2022-09-17T09:01:54.611Z,38.90
2022-09-17T09:04:56.962Z,38.60
2022-09-17T09:07:42.426Z,38.20
2022-09-17T09:10:22.180Z,38.10
2022-09-17T09:12:57.891Z,38.10
2022-09-17T09:15:44.257Z,38.00
2022-09-17T09:18:26.978Z,37.60
2022-09-17T09:21:22.406Z,37.30
2022-09-17T09:24:08.800Z,37.30
2022-09-17T09:26:41.327Z,37.10
2022-09-17T09:29:35.604Z,37.00
2022-09-17T09:32:16.608Z,36.70
2022-09-17T09:34:54.601Z,36.40
2022-09-17T09:37:31.697Z,36.30
2022-09-17T09:40:25.846Z,36.00
2022-09-17T09:43:04.919Z,35.80
2022-09-17T09:45:53.461Z,35.50
2022-09-17T09:49:07.521Z,35.20
2022-09-17T09:52:19.313Z,35.10
2022-09-17T09:55:25.834Z,34.80
2022-09-17T09:58:34.544Z,34.60
2022-09-17T10:01:21.162Z,34.50
2022-09-17T10:03:56.031Z,34.30
2022-09-17T10:06:31.727Z,34.20
2022-09-17T10:09:04.224Z,34.00
2022-09-17T10:11:38.295Z,34.10
2022-09-17T10:14:24.728Z,34.00
2022-09-17T10:17:32.602Z,33.60
2022-09-17T10:20:10.566Z,33.80
2022-09-17T10:22:47.412Z,33.60
2022-09-17T10:25:32.951Z,33.50
2022-09-17T10:28:21.646Z,33.40
2022-09-17T10:30:59.784Z,33.40
2022-09-17T10:33:33.499Z,33.30
2022-09-17T10:36:13.231Z,33.30
2022-09-17T10:38:47.457Z,33.00
2022-09-17T10:41:25.368Z,32.70
2022-09-17T10:44:18.350Z,32.70
2022-09-17T10:46:56.101Z,32.50
2022-09-17T10:49:42.392Z,32.50
2022-09-17T10:52:26.193Z,32.40
2022-09-17T10:55:17.089Z,32.30
2022-09-17T10:58:10.453Z,32.30
2022-09-17T11:01:00.855Z,32.30
2022-09-17T11:03:49.255Z,32.20
2022-09-17T11:06:45.426Z,32.10
2022-09-17T11:09:30.022Z,31.90
2022-09-17T11:12:05.469Z,31.70
2022-09-17T11:15:01.863Z,31.80
2022-09-17T11:17:59.928Z,31.60
2022-09-17T11:20:44.683Z,31.60
2022-09-17T11:23:46.451Z,31.50
2022-09-17T11:26:54.392Z,31.50
2022-09-17T11:30:04.357Z,31.50
2022-09-17T11:32:46.985Z,31.50
2022-09-17T11:35:30.052Z,31.50
2022-09-17T11:38:26.285Z,31.40
2022-09-17T11:41:08.400Z,31.30
2022-09-17T11:44:04.570Z,31.20
2022-09-17T11:46:58.125Z,31.20
2022-09-17T11:49:34.850Z,31.30
2022-09-17T11:52:26.526Z,31.40
2022-09-17T11:55:04.817Z,31.30
2022-09-17T11:57:42.195Z,32.30
2022-09-17T12:00:20.413Z,31.30
2022-09-17T12:03:10.870Z,31.40
2022-09-17T12:05:51.496Z,31.40
2022-09-17T12:08:40.046Z,31.40
2022-09-17T12:11:28.168Z,31.40
2022-09-17T12:14:32.403Z,31.30
2022-09-17T12:17:06.343Z,31.30
2022-09-17T12:19:46.650Z,31.40
2022-09-17T12:22:26.789Z,31.30
2022-09-17T12:25:01.681Z,31.30
2022-09-17T12:27:42.858Z,31.40
2022-09-17T12:30:23.140Z,31.30
2022-09-17T12:32:58.856Z,31.30
2022-09-17T12:36:15.960Z,31.40
2022-09-17T12:39:12.343Z,31.40
2022-09-17T12:42:18.344Z,31.40
2022-09-17T12:44:57.296Z,31.50
2022-09-17T12:47:53.069Z,31.40
2022-09-17T12:50:49.868Z,31.30
2022-09-17T12:53:25.383Z,33.10
2022-09-17T12:56:09.777Z,34.20
2022-09-17T12:58:56.589Z,34.90
2022-09-17T13:01:32.151Z,35.70
2022-09-17T13:04:49.906Z,36.90
2022-09-17T13:07:52.999Z,37.30
2022-09-17T13:10:43.994Z,38.10
2022-09-17T13:13:53.553Z,39.80
2022-09-17T13:16:57.114Z,39.30
2022-09-17T13:19:35.668Z,40.00
2022-09-17T13:22:16.655Z,41.10
2022-09-17T13:25:14.562Z,41.60
2022-09-17T13:27:48.854Z,41.80
2022-09-17T13:30:21.433Z,42.40
2022-09-17T13:32:54.109Z,43.30
2022-09-17T13:35:26.557Z,43.40
2022-09-17T13:38:00.595Z,44.10
2022-09-17T13:40:36.275Z,45.40
2022-09-17T13:43:16.202Z,46.20
2022-09-17T13:46:00.964Z,46.70
2022-09-17T13:48:36.284Z,47.40
2022-09-17T13:51:30.506Z,48.20
2022-09-17T13:54:06.097Z,48.90
2022-09-17T13:56:48.560Z,49.80
2022-09-17T13:59:27.564Z,50.10
2022-09-17T14:02:08.952Z,50.10
2022-09-17T14:04:41.473Z,50.90
2022-09-17T14:07:28.658Z,51.20
2022-09-17T14:10:03.399Z,51.50
2022-09-17T14:12:41.944Z,51.50
2022-09-17T14:15:36.338Z,52.00
2022-09-17T14:18:30.324Z,52.50
2022-09-17T14:21:33.756Z,52.70
2022-09-17T14:24:22.333Z,52.80
2022-09-17T14:27:12.368Z,53.50
2022-09-17T14:30:14.669Z,53.60
2022-09-17T14:33:05.747Z,53.90
2022-09-17T14:35:46.512Z,54.00
2022-09-17T14:38:24.005Z,53.80
2022-09-17T14:41:17.110Z,53.70
2022-09-17T14:43:55.808Z,53.60
2022-09-17T14:46:28.264Z,53.60
2022-09-17T14:49:16.899Z,53.40
2022-09-17T14:51:50.402Z,53.40
2022-09-17T14:54:32.364Z,53.70
2022-09-17T14:57:21.037Z,53.80
2022-09-17T14:59:57.547Z,53.80
2022-09-17T15:02:33.022Z,54.10
2022-09-17T15:05:34.389Z,54.00
2022-09-17T15:08:17.458Z,54.30
2022-09-17T15:11:06.967Z,54.40
2022-09-17T15:13:51.576Z,54.50
2022-09-17T15:16:30.883Z,54.40
2022-09-17T15:19:04.451Z,54.30
2022-09-17T15:21:43.189Z,54.90
2022-09-17T15:24:37.634Z,55.00
2022-09-17T15:27:33.417Z,55.00
2022-09-17T15:30:20.552Z,54.80
2022-09-17T15:32:59.257Z,54.80
2022-09-17T15:35:34.245Z,54.60
2022-09-17T15:38:29.295Z,54.60
2022-09-17T15:41:30.593Z,54.50
2022-09-17T15:44:30.487Z,54.50
2022-09-17T15:47:58.201Z,54.40
2022-09-17T15:50:34.350Z,54.30
2022-09-17T15:53:12.462Z,54.30
2022-09-17T15:55:58.833Z,54.30
2022-09-17T15:58:35.684Z,54.20
2022-09-17T16:01:17.602Z,54.20
2022-09-17T16:03:59.150Z,54.20
2022-09-17T16:06:33.200Z,54.10
2022-09-17T16:09:44.088Z,55.00
2022-09-17T16:12:20.406Z,54.00
2022-09-17T16:14:58.022Z,53.90
2022-09-17T16:17:45.721Z,54.10
2022-09-17T16:20:20.800Z,54.30
2022-09-17T16:22:53.994Z,54.40
2022-09-17T16:25:27.939Z,54.50
2022-09-17T16:28:04.384Z,54.60
2022-09-17T16:30:37.644Z,54.80
2022-09-17T16:33:12.429Z,54.60
2022-09-17T16:35:45.195Z,54.70
2022-09-17T16:38:17.697Z,54.80
2022-09-17T16:40:52.076Z,54.90
2022-09-17T16:43:27.547Z,54.60
2022-09-17T16:46:00.795Z,54.80
2022-09-17T16:48:33.922Z,54.90
2022-09-17T16:51:14.257Z,55.00
2022-09-17T16:53:46.938Z,54.90
2022-09-17T16:56:19.432Z,54.80
2022-09-17T16:58:57.091Z,54.60
2022-09-17T17:01:29.726Z,54.60
2022-09-17T17:04:02.655Z,54.50
2022-09-17T17:06:35.250Z,54.50
2022-09-17T17:09:07.699Z,54.40
2022-09-17T17:11:40.103Z,54.40
2022-09-17T17:14:14.917Z,54.20
2022-09-17T17:16:47.926Z,54.40
2022-09-17T17:19:20.536Z,54.50
2022-09-17T17:21:53.507Z,54.60
2022-09-17T17:24:26.082Z,54.50
2022-09-17T17:26:58.653Z,54.60
2022-09-17T17:29:31.169Z,54.70
2022-09-17T17:32:04.740Z,54.70
2022-09-17T17:34:37.361Z,54.50
2022-09-17T17:37:09.847Z,54.60
2022-09-17T17:39:42.333Z,54.70
2022-09-17T17:42:14.734Z,54.70
2022-09-17T17:44:47.911Z,54.50
2022-09-17T17:47:20.723Z,54.70
2022-09-17T17:49:53.196Z,54.80
2022-09-17T17:52:25.733Z,54.90
2022-09-17T17:54:58.172Z,54.60
2022-09-17T17:57:30.655Z,54.90
2022-09-17T18:00:04.168Z,54.70
2022-09-17T18:02:44.305Z,55.00
2022-09-17T18:05:17.075Z,55.00
2022-09-17T18:07:49.878Z,55.20
2022-09-17T18:10:23.503Z,55.30
2022-09-17T18:12:56.004Z,55.40
2022-09-17T18:15:28.369Z,55.40
2022-09-17T18:18:01.088Z,55.30
2022-09-17T18:20:33.623Z,55.60
2022-09-17T18:23:05.914Z,55.70
2022-09-17T18:25:38.518Z,55.50
2022-09-17T18:28:11.021Z,55.80
2022-09-17T18:30:44.268Z,55.90
2022-09-17T18:33:25.778Z,55.70
2022-09-17T18:36:03.045Z,55.90
2022-09-17T18:38:35.763Z,56.00
2022-09-17T18:41:11.400Z,56.20
2022-09-17T18:43:44.333Z,56.20
2022-09-17T18:46:17.057Z,56.20
2022-09-17T18:48:53.661Z,56.20
2022-09-17T18:51:28.209Z,56.20
2022-09-17T18:54:02.075Z,56.30
2022-09-17T18:56:34.683Z,56.00
2022-09-17T18:59:08.395Z,55.90
2022-09-17T19:01:41.277Z,55.80
2022-09-17T19:04:13.864Z,55.30
2022-09-17T19:06:46.213Z,54.80
2022-09-17T19:09:18.708Z,54.70
2022-09-17T19:11:51.250Z,53.70
2022-09-17T19:14:23.552Z,53.00
2022-09-17T19:16:56.153Z,53.30
2022-09-17T19:19:29.199Z,52.40
2022-09-17T19:22:01.667Z,51.80
2022-09-17T19:24:33.936Z,51.20
2022-09-17T19:27:07.789Z,51.50
2022-09-17T19:29:40.344Z,50.80
2022-09-17T19:32:13.499Z,50.30
2022-09-17T19:34:46.019Z,50.70
2022-09-17T19:37:18.377Z,50.00
2022-09-17T19:39:50.972Z,50.20
2022-09-17T19:42:23.748Z,49.60
2022-09-17T19:44:56.694Z,49.20
2022-09-17T19:47:32.323Z,49.00
2022-09-17T19:50:05.132Z,48.50
2022-09-17T19:52:37.667Z,48.30
2022-09-17T19:55:12.841Z,48.10
2022-09-17T19:57:45.831Z,48.60
2022-09-17T20:00:19.001Z,47.90
2022-09-17T20:02:51.695Z,47.50
2022-09-17T20:05:24.253Z,47.30
2022-09-17T20:07:56.624Z,47.20
2022-09-17T20:10:30.307Z,47.50
2022-09-17T20:13:02.859Z,47.10
2022-09-17T20:15:36.289Z,46.90
2022-09-17T20:18:08.926Z,46.70
2022-09-17T20:20:41.461Z,46.60
2022-09-17T20:23:14.049Z,46.90
2022-09-17T20:25:51.546Z,46.50
2022-09-17T20:28:24.107Z,46.90
2022-09-17T20:31:11.463Z,46.40
2022-09-17T20:33:44.273Z,46.10
2022-09-17T20:36:19.088Z,46.00
2022-09-17T20:39:14.331Z,45.90
2022-09-17T20:41:44.738Z,45.80
2022-09-17T20:44:18.133Z,45.70
2022-09-17T20:46:50.852Z,46.10
2022-09-17T20:49:23.531Z,45.70
2022-09-17T20:51:56.023Z,45.60
2022-09-17T20:54:28.326Z,45.60
2022-09-17T20:57:00.771Z,45.90
2022-09-17T20:59:52.331Z,45.80
2022-09-17T21:02:25.621Z,46.90
2022-09-17T21:04:58.167Z,45.80
2022-09-17T21:07:33.264Z,45.90
2022-09-17T21:10:09.078Z,46.00
2022-09-17T21:12:41.687Z,45.90
2022-09-17T21:15:15.168Z,45.90
2022-09-17T21:17:48.445Z,45.90
2022-09-17T21:20:20.977Z,45.90
2022-09-17T21:22:53.259Z,45.90
2022-09-17T21:25:25.994Z,46.10
2022-09-17T21:27:59.603Z,46.10
2022-09-17T21:30:32.309Z,46.00
2022-09-17T21:33:04.837Z,46.00
2022-09-17T21:35:37.207Z,46.00
2022-09-17T21:38:09.758Z,46.20
2022-09-17T21:40:44.059Z,46.10
2022-09-17T21:43:16.811Z,46.30
2022-09-17T21:46:02.600Z,46.20
2022-09-17T21:48:37.092Z,47.30
2022-09-17T21:51:18.259Z,46.30
2022-09-17T21:53:52.119Z,46.20
2022-09-17T21:56:24.649Z,46.20
2022-09-17T21:58:58.539Z,46.20
2022-09-17T22:01:35.866Z,47.30
2022-09-17T22:04:13.337Z,46.30
2022-09-17T22:06:47.484Z,46.30
2022-09-17T22:09:25.410Z,46.40
2022-09-17T22:11:58.579Z,46.30
2022-09-17T22:14:31.260Z,46.20
2022-09-17T22:17:03.768Z,46.20
2022-09-17T22:19:36.177Z,46.20
2022-09-17T22:22:08.647Z,46.40
2022-09-17T22:24:44.572Z,46.30
2022-09-17T22:27:17.063Z,46.40
2022-09-17T22:29:49.401Z,46.30
2022-09-17T22:32:23.267Z,46.40
2022-09-17T22:34:55.970Z,46.40
2022-09-17T22:37:29.669Z,46.40
2022-09-17T22:40:02.416Z,46.40
2022-09-17T22:42:35.033Z,46.40
2022-09-17T22:45:08.395Z,46.40
2022-09-17T22:47:41.587Z,46.50
2022-09-17T22:50:14.285Z,46.50
2022-09-17T22:52:49.879Z,46.60
2022-09-17T22:55:22.476Z,47.60
2022-09-17T22:57:55.113Z,46.70
2022-09-17T23:00:27.576Z,46.80
2022-09-17T23:03:00.293Z,46.80
2022-09-17T23:05:32.933Z,46.90
2022-09-17T23:08:05.264Z,47.00
2022-09-17T23:10:37.760Z,47.00
2022-09-17T23:13:11.320Z,47.00
2022-09-17T23:15:46.727Z,47.00
2022-09-17T23:18:19.485Z,47.10
2022-09-17T23:21:10.488Z,47.10
2022-09-17T23:23:44.339Z,47.10
2022-09-17T23:26:19.920Z,47.10
2022-09-17T23:28:52.763Z,47.00
2022-09-17T23:31:28.232Z,47.00
2022-09-17T23:34:00.838Z,46.90
2022-09-17T23:36:35.266Z,46.90
2022-09-17T23:39:10.976Z,47.00
2022-09-17T23:41:45.731Z,46.80
2022-09-17T23:44:18.430Z,46.70
2022-09-17T23:46:50.942Z,46.60
2022-09-17T23:49:23.273Z,46.50
2022-09-17T23:51:55.848Z,46.60
2022-09-17T23:54:28.185Z,46.50
2022-09-17T23:57:00.697Z,46.50
2022-09-17T23:59:33.226Z,46.40
